Aérodrome :
LOGIN :

S'inscrire | Disclaimer

   EN    FR    IT 

 










Légende :    VFR   VFR Marginal   IFR   IFR Intensif   IFR Très Intensif
Visi : 
Plafond : 
>= 8 km
>= 3000ft
5 à 8 km
1000 à 3000 ft
1500m à 5 km
500 à 1000 ft
800 à 1500m
200 à 500 ft
< 800m
< 200 ft
Symboles :   Orages  Brouillard  Fortes neiges  Fortes précipitations  Vent > 20 kt
SIGMETs :   Divers  Orages  Givrage  Turbulence  Onde Orograph.  Cendres Volcan.






- Altitude de l'aérodrome : 288 ft
- Code IATA : BZZ


EGVN - RAF Brize Norton

DERNIER METAR :
  • 190150Z 00000KT 9999 FEW038 SCT240 13/11 Q1012 NOSIG RMK BLU BLU

METARs EXPIRÉS :
  • 190120Z 00000KT 9999 FEW009 BKN240 13/11 Q1012 NOSIG RMK BLU BLU
  • 190050Z 08001KT 9999 FEW038 SCT060 BKN240 13/11 Q1012 NOSIG RMK BLU BLU
  • 190020Z 14003KT 9999 FEW038 BKN050 14/12 Q1013 NOSIG RMK BLU BLU
  • 182350Z 06001KT 9999 FEW038 BKN050 14/12 Q1013 NOSIG RMK BLU BLU
  • 182320Z 09001KT 9999 FEW038 BKN050 15/12 Q1013 NOSIG RMK BLU BLU

TAF TAF EGVN
Valide du 19 à 00h jusqu'au 20 à 00h UTC


182232Z 1900/1924 VRB05KT 9999 SCT045
PROB40 1900/1903 4000 BR
PROB40
TEMPO 1903/1909 4000 -RA BKN008
PROB30
TEMPO 1903/1907 2000 BR BKN004
PROB30
TEMPO 1913/1921 7000 -SHRA



MET'MAP, la Météo Aéronautique d'un coup d'oeil ! - Copyright ORBIFLY Décembre 2007 - Disclaimer

ORBIFLY MET'MAP TEAM :

Programmation & Développement : Alexandra Zaïnal
Sur une idée originale de : Baudouin d'Aumeries
Assistance à la programmation : Marc-Olivier Méhu
Soutien technique & logistique : Manuel Goepfert

Contact : metmap@orbifly.com




SOURCES & CREDITS :

   NOAA